Nearby METAR Reports

 

KIND - Indianapolis, Indiana, USA
Distance from station: SW 6mi, 9km
Updated: Jul 16 2019 3:54am
Light rain, Overcast
Light rain, Overcast
 Wind from S
Wind: S 10 mph , 17 km/h
Temperature: 75°F , 24°C
Dew Point: 72°F , 22°C
Humidity: 89%
Barometer: 30.02 inHg , 1016.6 hPa
Summary: Light Rain
Clouds: Overcast
Visibility: 9 miles , 14 km
Cloud details: Mostly Cloudy 5000 ft
Mostly Cloudy 6000 ft
Overcast 11000 ft
2019/07/16 07:54 KIND 160754Z 17009KT 9SM -RA BKN050 BKN060 OVC110 24/22 A3002 RMK AO2 RAB21 SLP157 P0000 T02390217
KEYE - Indianapolis, Indiana, USA
Distance from station: NW 5mi, 8km
Updated: Jul 16 2019 3:53am
Mostly Cloudy
Mostly Cloudy
 Wind from S
Wind: S 5 mph , 7 km/h
Temperature: 75°F , 24°C
Dew Point: 70°F , 21°C
Humidity: 83%
Barometer: 30.02 inHg , 1016.6 hPa
Clouds: Mostly Cloudy
Visibility: 10 miles , 16 km
Cloud details: Partly Cloudy 4900 ft
Partly Cloudy 6500 ft
Mostly Cloudy 11000 ft
2019/07/16 07:53 KEYE 160753Z AUTO 17004KT 10SM SCT049 SCT065 BKN110 24/21 A3002 RMK AO2 RAE05B25E45 SLP156 P0000 T02440211
 
KTYQ - Indianapolis Exc, Indiana, USA
Distance from station: N 17mi, 28km
Updated: Jul 16 2019 4:35am
Drizzle, Overcast
Drizzle, Overcast
 Wind from SSE
Wind: SSE 7 mph , 11 km/h
Temperature: 73°F , 23°C
Dew Point: 73°F , 23°C
Humidity: 100%
Barometer: 30.03 inHg , 1016.9 hPa
Summary: Drizzle
Clouds: Overcast
Visibility: 10 miles , 16 km
Cloud details: Mostly Cloudy 4400 ft
Mostly Cloudy 6500 ft
Overcast 8000 ft
2019/07/16 08:35 KTYQ 160835Z AUTO 16006KT 10SM DZ BKN044 BKN065 OVC080 23/23 A3003 RMK AO2 T02250225
KGEZ - Shelbyville, Indiana, USA
Distance from station: ESE 27mi, 43km
Updated: Jul 16 2019 3:53am
Mostly Cloudy
Mostly Cloudy
 Wind from SSE
Wind: SSE 9 mph , 15 km/h
Temperature: 75°F , 24°C
Dew Point: 70°F , 21°C
Humidity: 83%
Barometer: 30.03 inHg , 1016.9 hPa
Clouds: Mostly Cloudy
Visibility: 10 miles , 16 km
Cloud details: Mostly Cloudy 4800 ft
Mostly Cloudy 6500 ft
Mostly Cloudy 12000 ft
2019/07/16 07:53 KGEZ 160753Z AUTO 16008KT 10SM BKN048 BKN065 BKN120 24/21 A3003 RMK AO2 RAE04 SLP162 P0000 T02390206
 
KAID - Anderson Municip, Indiana, USA
Distance from station: NE 40mi, 64km
Updated: Jul 16 2019 4:35am
Light rain, Overcast
Light rain, Overcast
 Wind from S
Wind: S 6 mph , 9 km/h
Temperature: 73°F , 23°C
Dew Point: 70°F , 21°C
Humidity: 89%
Barometer: 30.04 inHg , 1017.3 hPa
Summary: Light Rain
Clouds: Overcast
Visibility: 10 miles , 16 km
Cloud details: Overcast 11000 ft
2019/07/16 08:35 KAID 160835Z AUTO 17005KT 10SM -RA OVC110 23/21 A3004 RMK AO2 T02270205
KBAK - Columbus/Balkala, Indiana, USA
Distance from station: SSE 40mi, 64km
Updated: Jul 15 2019 9:50pm
NOT Current
Partly Cloudy
Partly Cloudy
 Wind from calm
Wind: Calm
Temperature: 75°F , 24°C
Dew Point: 72°F , 22°C
Humidity: 89%
Barometer: 30.05 inHg , 1017.6 hPa
Clouds: Partly Cloudy
Visibility: 10 miles , 16 km
Cloud details: Partly Cloudy 11000 ft
2019/07/16 01:50 KBAK 160150Z 00000KT 10SM SCT110 24/22 A3005 RMK LAST
 
KBMG - Bloomington, Indiana, USA
Distance from station: SSW 48mi, 78km
Updated: Jul 16 2019 3:53am
Light rain, Overcast
Light rain, Overcast
 Wind from SE
Wind: SE 7 mph , 11 km/h
Temperature: 73°F , 23°C
Dew Point: 73°F , 23°C
Humidity: 100%
Barometer: 30.02 inHg , 1016.6 hPa
Summary: Light Rain
Clouds: Overcast
Visibility: 10 miles , 16 km
Cloud details: Mostly Cloudy 6000 ft
Overcast 7500 ft
2019/07/16 07:53 KBMG 160753Z AUTO 13006KT 10SM -RA BKN060 OVC075 23/23 A3002 RMK AO2 SLP156 P0000 T02330228
KOKK - Kokomo, Indiana, USA
Distance from station: N 53mi, 85km
Updated: Jul 16 2019 3:56am
Overcast
Overcast
 Wind from SSE
Wind: SSE 14 mph , 22 km/h
Temperature: 77°F , 25°C
Dew Point: 72°F , 22°C
Humidity: 83%
Barometer: 30.02 inHg , 1016.6 hPa
Clouds: Overcast
Visibility: 10 miles , 16 km
Cloud details: Few Clouds 4900 ft
Mostly Cloudy 6000 ft
Overcast 9500 ft
2019/07/16 07:56 KOKK 160756Z AUTO 16012KT 10SM FEW049 BKN060 OVC095 25/22 A3002 RMK AO2 SLP158 T02500217